Time;durP1;ratioP1;P1;durP2;ratioP2;P2;SDS_P1;SDS_P2;PMS_P1;PMS_P2;Temp;Humidity;BMP_temperature;BMP_pressure;BME280_temperature;BME280_humidity;BME280_pressure;Samples;Min_cycle;Max_cycle;Signal;HPM_P1;HPM_P2
2023/12/15 00:00:16;;;;;;;38.58;14.43;;;;;;;;;;5016949;28;20536;-72
2023/12/15 00:02:42;;;;;;;36.28;14.13;;;;;;;;;;5033724;28;20082;-72
2023/12/15 00:05:09;;;;;;;37.67;13.57;;;;;;;;;;5033822;28;20049;-72
2023/12/15 00:07:35;;;;;;;38.13;13.77;;;;;;;;;;5033884;28;20403;-72
2023/12/15 00:10:01;;;;;;;40.90;14.15;;;;;;;;;;5049153;28;20067;-73
2023/12/15 00:12:27;;;;;;;36.72;15.32;;;;;;;;;;5033703;28;20542;-72
2023/12/15 00:14:53;;;;;;;37.63;13.18;;;;;;;;;;5034288;28;20041;-72
2023/12/15 00:17:20;;;;;;;35.50;14.05;;;;;;;;;;5034544;28;20103;-73
2023/12/15 00:19:46;;;;;;;36.85;14.05;;;;;;;;;;5016241;28;20103;-73
2023/12/15 00:22:12;;;;;;;36.03;14.80;;;;;;;;;;5016239;28;20045;-72
2023/12/15 00:24:38;;;;;;;38.22;13.18;;;;;;;;;;5033622;28;20081;-73
2023/12/15 00:27:07;;;;;;;40.45;14.00;;;;;;;;;;5032495;28;20061;-72
2023/12/15 00:29:33;;;;;;;36.90;14.20;;;;;;;;;;5016161;28;20056;-73
2023/12/15 00:31:59;;;;;;;33.15;14.23;;;;;;;;;;5015924;28;20104;-73
2023/12/15 00:34:25;;;;;;;34.67;14.35;;;;;;;;;;5015991;28;20111;-73
2023/12/15 00:36:51;;;;;;;34.25;13.60;;;;;;;;;;5016101;28;20067;-74
2023/12/15 00:39:17;;;;;;;41.60;15.35;;;;;;;;;;5016131;28;20124;-75
2023/12/15 00:41:43;;;;;;;34.25;13.55;;;;;;;;;;5015724;28;20558;-72
2023/12/15 00:44:09;;;;;;;37.00;15.35;;;;;;;;;;5016339;28;20050;-72
2023/12/15 00:46:36;;;;;;;36.53;15.35;;;;;;;;;;4999844;28;20045;-73
2023/12/15 00:49:02;;;;;;;39.58;14.18;;;;;;;;;;5016470;28;20053;-74
2023/12/15 00:51:28;;;;;;;39.22;14.25;;;;;;;;;;5033474;28;20042;-73
2023/12/15 00:53:54;;;;;;;41.72;15.30;;;;;;;;;;4999753;28;20093;-73
2023/12/15 00:56:20;;;;;;;41.70;15.63;;;;;;;;;;4999603;28;20049;-72
2023/12/15 00:58:46;;;;;;;39.53;15.55;;;;;;;;;;5015795;28;20038;-73
2023/12/15 01:01:12;;;;;;;43.72;16.98;;;;;;;;;;5034723;28;20060;-72
2023/12/15 01:03:38;;;;;;;38.17;15.93;;;;;;;;;;5015659;28;20067;-72
2023/12/15 01:06:05;;;;;;;36.28;15.80;;;;;;;;;;5033228;28;20092;-72
2023/12/15 01:08:31;;;;;;;38.17;16.05;;;;;;;;;;5034881;28;20045;-73
2023/12/15 01:10:57;;;;;;;47.13;16.33;;;;;;;;;;5019755;28;20053;-72
2023/12/15 01:13:23;;;;;;;42.80;16.70;;;;;;;;;;5037699;28;20081;-73
2023/12/15 01:15:50;;;;;;;42.45;16.45;;;;;;;;;;5019624;28;20085;-72
2023/12/15 01:18:16;;;;;;;44.78;16.92;;;;;;;;;;5004043;28;20049;-73
2023/12/15 01:20:42;;;;;;;46.90;18.25;;;;;;;;;;5037831;28;20382;-72
2023/12/15 01:23:08;;;;;;;44.80;16.52;;;;;;;;;;5036856;28;20045;-72
2023/12/15 01:25:34;;;;;;;43.70;16.45;;;;;;;;;;5037182;28;20158;-72
2023/12/15 01:28:01;;;;;;;45.50;17.15;;;;;;;;;;5037631;28;20049;-72
2023/12/15 01:30:27;;;;;;;43.38;17.40;;;;;;;;;;5019610;28;20102;-72
2023/12/15 01:32:53;;;;;;;42.45;17.40;;;;;;;;;;5051971;28;20042;-72
2023/12/15 01:35:19;;;;;;;38.65;17.38;;;;;;;;;;5036728;28;20051;-73
2023/12/15 01:37:45;;;;;;;40.20;16.55;;;;;;;;;;5036617;28;20045;-72
2023/12/15 01:40:11;;;;;;;38.95;17.15;;;;;;;;;;5018980;28;20042;-72
2023/12/15 01:42:37;;;;;;;41.57;16.97;;;;;;;;;;5036344;28;20057;-73
2023/12/15 01:45:03;;;;;;;39.20;15.77;;;;;;;;;;5036515;28;20045;-72
2023/12/15 01:47:30;;;;;;;40.53;18.02;;;;;;;;;;5036563;28;20041;-74
2023/12/15 01:49:56;;;;;;;52.05;18.38;;;;;;;;;;5036350;28;20048;-73
2023/12/15 01:52:22;;;;;;;43.42;17.55;;;;;;;;;;5036074;28;20545;-73
2023/12/15 01:54:48;;;;;;;48.15;17.95;;;;;;;;;;5018770;28;20049;-71
2023/12/15 01:57:15;;;;;;;39.65;17.92;;;;;;;;;;5019450;28;20049;-71
2023/12/15 01:59:42;;;;;;;51.13;17.95;;;;;;;;;;5051465;28;20497;-73
2023/12/15 02:02:08;;;;;;;43.72;18.30;;;;;;;;;;5035570;28;20494;-72
2023/12/15 02:04:34;;;;;;;46.97;17.02;;;;;;;;;;5036486;28;20065;-73
2023/12/15 02:07:00;;;;;;;44.58;17.73;;;;;;;;;;5036034;28;20053;-72
2023/12/15 02:09:26;;;;;;;44.40;18.60;;;;;;;;;;5036107;28;20049;-72
2023/12/15 02:11:53;;;;;;;51.28;18.13;;;;;;;;;;5035971;28;20091;-73
2023/12/15 02:14:19;;;;;;;39.78;16.05;;;;;;;;;;5035905;28;20079;-72
2023/12/15 02:16:45;;;;;;;46.00;17.83;;;;;;;;;;5051780;28;20053;-73
2023/12/15 02:19:11;;;;;;;47.15;18.73;;;;;;;;;;5036338;28;20052;-72
2023/12/15 02:21:37;;;;;;;47.70;18.60;;;;;;;;;;5017351;28;20053;-73
2023/12/15 02:24:03;;;;;;;51.13;17.88;;;;;;;;;;5035742;28;20402;-73
2023/12/15 02:26:29;;;;;;;48.30;19.10;;;;;;;;;;5036335;28;20067;-73
2023/12/15 02:28:55;;;;;;;57.25;19.02;;;;;;;;;;5036014;28;20480;-73
2023/12/15 02:31:22;;;;;;;51.45;18.33;;;;;;;;;;5035676;28;20402;-73
2023/12/15 02:33:48;;;;;;;53.95;19.90;;;;;;;;;;5035611;28;20052;-73
2023/12/15 02:36:19;;;;;;;44.53;17.00;;;;;;;;;;5035484;28;20092;-73
2023/12/15 02:38:45;;;;;;;51.72;18.83;;;;;;;;;;5035701;28;20513;-74
2023/12/15 02:41:11;;;;;;;54.22;19.27;;;;;;;;;;5017727;28;20052;-73
2023/12/15 02:43:38;;;;;;;60.97;19.23;;;;;;;;;;5035460;28;20045;-73
2023/12/15 02:46:04;;;;;;;53.65;18.88;;;;;;;;;;5035275;28;20144;-72
2023/12/15 02:48:30;;;;;;;62.95;20.08;;;;;;;;;;5035313;28;20042;-72
2023/12/15 02:50:56;;;;;;;56.97;19.48;;;;;;;;;;5001757;28;20046;-73
2023/12/15 02:53:22;;;;;;;70.97;21.13;;;;;;;;;;5017548;28;20151;-72
2023/12/15 02:55:49;;;;;;;57.47;18.75;;;;;;;;;;5034883;28;20496;-72
2023/12/15 02:58:15;;;;;;;57.70;19.80;;;;;;;;;;5035068;28;20088;-74
2023/12/15 03:00:41;;;;;;;55.90;20.10;;;;;;;;;;5034961;28;20300;-72
2023/12/15 03:03:07;;;;;;;56.88;19.65;;;;;;;;;;5017003;28;20054;-72
2023/12/15 03:05:35;;;;;;;55.85;19.75;;;;;;;;;;5035097;28;20076;-74
2023/12/15 03:08:01;;;;;;;59.70;19.65;;;;;;;;;;5034941;28;20095;-73
2023/12/15 03:10:27;;;;;;;55.17;19.73;;;;;;;;;;5017452;28;20437;-72
2023/12/15 03:12:53;;;;;;;62.95;18.75;;;;;;;;;;5034813;28;20041;-73
2023/12/15 03:15:19;;;;;;;54.28;18.88;;;;;;;;;;5050070;28;20414;-73
2023/12/15 03:17:45;;;;;;;60.30;19.23;;;;;;;;;;5034829;28;20085;-72
2023/12/15 03:20:11;;;;;;;63.33;21.27;;;;;;;;;;5035117;28;20425;-72
2023/12/15 03:22:38;;;;;;;54.97;18.83;;;;;;;;;;5017278;28;20470;-72
2023/12/15 03:25:05;;;;;;;59.35;18.17;;;;;;;;;;5016892;28;20064;-72
2023/12/15 03:27:31;;;;;;;57.60;19.95;;;;;;;;;;5034609;28;20053;-73
2023/12/15 03:29:57;;;;;;;61.13;19.42;;;;;;;;;;5034637;28;20042;-73
2023/12/15 03:32:23;;;;;;;61.22;19.35;;;;;;;;;;5034284;28;20049;-73
2023/12/15 03:34:49;;;;;;;60.63;19.33;;;;;;;;;;5034408;28;20045;-73
2023/12/15 03:37:16;;;;;;;66.03;20.95;;;;;;;;;;5034988;28;20127;-73
2023/12/15 03:39:42;;;;;;;60.67;19.63;;;;;;;;;;5034216;28;20124;-72
2023/12/15 03:42:09;;;;;;;69.72;20.90;;;;;;;;;;5034109;28;20049;-72
2023/12/15 03:44:39;;;;;;;62.53;19.63;;;;;;;;;;5016833;28;20491;-73
2023/12/15 03:47:08;;;;;;;63.88;18.73;;;;;;;;;;5034193;28;20053;-73
2023/12/15 03:49:35;;;;;;;60.13;20.02;;;;;;;;;;5016456;28;20061;-74
2023/12/15 03:52:01;;;;;;;61.47;20.30;;;;;;;;;;5034588;28;20050;-73
2023/12/15 03:54:27;;;;;;;59.63;18.70;;;;;;;;;;5016357;28;20045;-73
2023/12/15 03:56:56;;;;;;;62.40;20.65;;;;;;;;;;5033962;28;20046;-73
2023/12/15 03:59:23;;;;;;;68.70;20.20;;;;;;;;;;5034236;28;20041;-73
2023/12/15 04:01:49;;;;;;;58.87;18.93;;;;;;;;;;5015981;28;20403;-72
2023/12/15 04:04:15;;;;;;;63.47;19.92;;;;;;;;;;5016220;28;20296;-71
2023/12/15 04:06:41;;;;;;;60.60;19.40;;;;;;;;;;5034110;28;20474;-71
2023/12/15 04:09:10;;;;;;;59.60;18.67;;;;;;;;;;5033862;28;20083;-71
2023/12/15 04:11:39;;;;;;;69.82;21.05;;;;;;;;;;5000201;28;20133;-71
2023/12/15 04:14:05;;;;;;;63.95;19.27;;;;;;;;;;5032953;28;20042;-71
2023/12/15 04:16:32;;;;;;;63.47;19.77;;;;;;;;;;5000131;28;20210;-72
2023/12/15 04:18:59;;;;;;;68.53;20.17;;;;;;;;;;5033702;28;20375;-73
2023/12/15 04:21:25;;;;;;;58.95;19.27;;;;;;;;;;5032358;28;20326;-72
2023/12/15 04:23:51;;;;;;;64.63;21.42;;;;;;;;;;5016217;28;20054;-72
2023/12/15 04:26:17;;;;;;;63.60;20.45;;;;;;;;;;5033442;28;20085;-72
2023/12/15 04:28:44;;;;;;;64.15;20.38;;;;;;;;;;5033565;28;20207;-71
2023/12/15 04:31:13;;;;;;;71.13;19.00;;;;;;;;;;5033522;28;20116;-72
2023/12/15 04:33:39;;;;;;;64.57;20.52;;;;;;;;;;5000455;28;20053;-71
2023/12/15 04:36:07;;;;;;;71.95;22.40;;;;;;;;;;5033432;28;20049;-72
2023/12/15 04:38:33;;;;;;;64.53;21.38;;;;;;;;;;5033466;28;20053;-71
2023/12/15 04:41:00;;;;;;;66.20;21.73;;;;;;;;;;5015783;28;20457;-70
2023/12/15 04:43:26;;;;;;;65.43;21.08;;;;;;;;;;5032844;28;20072;-71
2023/12/15 04:45:52;;;;;;;72.03;21.88;;;;;;;;;;5034011;28;20053;-72
2023/12/15 04:48:18;;;;;;;62.97;19.08;;;;;;;;;;5033300;28;20049;-70
2023/12/15 04:50:44;;;;;;;65.00;21.45;;;;;;;;;;5015905;28;20100;-72
2023/12/15 04:53:10;;;;;;;65.88;20.70;;;;;;;;;;4999830;28;20054;-70
2023/12/15 04:55:36;;;;;;;77.07;19.92;;;;;;;;;;5033754;28;20081;-71
2023/12/15 04:58:02;;;;;;;56.08;19.85;;;;;;;;;;5033294;28;20085;-71
2023/12/15 05:00:28;;;;;;;74.22;20.38;;;;;;;;;;5016335;28;20467;-71
2023/12/15 05:02:55;;;;;;;66.43;20.35;;;;;;;;;;5033129;28;20064;-72
2023/12/15 05:05:21;;;;;;;71.00;21.37;;;;;;;;;;5033213;28;20049;-72
2023/12/15 05:07:47;;;;;;;67.22;20.83;;;;;;;;;;5000134;28;20158;-72
2023/12/15 05:10:13;;;;;;;70.03;20.88;;;;;;;;;;5033145;28;20103;-71
2023/12/15 05:12:39;;;;;;;67.97;20.55;;;;;;;;;;4999498;28;20060;-72
2023/12/15 05:15:05;;;;;;;73.53;20.63;;;;;;;;;;5015354;28;20601;-73
2023/12/15 05:17:32;;;;;;;71.30;21.30;;;;;;;;;;5015220;28;20050;-71
2023/12/15 05:19:58;;;;;;;76.67;21.27;;;;;;;;;;5015565;28;20099;-72
2023/12/15 05:22:24;;;;;;;69.50;20.58;;;;;;;;;;5015310;28;20288;-72
2023/12/15 05:24:53;;;;;;;68.33;20.83;;;;;;;;;;5015390;28;20037;-71
2023/12/15 05:27:19;;;;;;;67.88;21.02;;;;;;;;;;4998817;28;20060;-72
2023/12/15 05:29:46;;;;;;;61.83;18.58;;;;;;;;;;5015361;28;20072;-72
2023/12/15 05:32:13;;;;;;;68.90;18.52;;;;;;;;;;5031946;28;20490;-72
2023/12/15 05:34:39;;;;;;;67.97;20.98;;;;;;;;;;5015377;28;20046;-72
2023/12/15 05:37:05;;;;;;;70.07;21.38;;;;;;;;;;5016105;28;20085;-73
2023/12/15 05:39:31;;;;;;;69.90;20.97;;;;;;;;;;5032766;28;20055;-72
2023/12/15 05:41:58;;;;;;;71.18;19.67;;;;;;;;;;5032705;28;20413;-72
2023/12/15 05:44:24;;;;;;;69.13;19.83;;;;;;;;;;5032644;28;20055;-73
2023/12/15 05:46:50;;;;;;;63.83;18.80;;;;;;;;;;5015122;28;20042;-72
2023/12/15 05:49:16;;;;;;;67.72;19.33;;;;;;;;;;5015310;28;20081;-71
2023/12/15 05:51:48;;;;;;;77.35;21.08;;;;;;;;;;5015211;28;20095;-71
2023/12/15 05:54:15;;;;;;;65.30;18.67;;;;;;;;;;5015003;28;20055;-73
2023/12/15 05:56:41;;;;;;;63.17;20.45;;;;;;;;;;5035528;28;20072;-72
2023/12/15 05:59:08;;;;;;;76.97;21.20;;;;;;;;;;5037005;28;20049;-73
2023/12/15 06:01:34;;;;;;;72.35;19.98;;;;;;;;;;5018312;28;20128;-71
2023/12/15 06:04:00;;;;;;;64.93;18.88;;;;;;;;;;5036005;28;20049;-72
2023/12/15 06:06:26;;;;;;;70.25;19.55;;;;;;;;;;5018402;28;20060;-72
2023/12/15 06:08:52;;;;;;;63.17;18.75;;;;;;;;;;5035974;28;20103;-72
2023/12/15 06:11:18;;;;;;;72.32;19.83;;;;;;;;;;5036011;28;20053;-73
2023/12/15 06:13:44;;;;;;;67.25;18.27;;;;;;;;;;5018285;28;20056;-72
2023/12/15 06:16:20;;;;;;;60.70;18.85;;;;;;;;;;5035896;28;20081;-71
2023/12/15 06:18:49;;;;;;;71.10;19.15;;;;;;;;;;5036898;28;20371;-71
2023/12/15 06:21:26;;;;;;;74.22;19.38;;;;;;;;;;5001883;28;20050;-72
2023/12/15 06:23:52;;;;;;;63.40;18.20;;;;;;;;;;5018013;28;20049;-72
2023/12/15 06:26:22;;;;;;;62.63;19.27;;;;;;;;;;5035743;28;20355;-71
2023/12/15 06:28:48;;;;;;;60.65;19.08;;;;;;;;;;5035561;28;20045;-72
2023/12/15 06:31:15;;;;;;;62.50;18.90;;;;;;;;;;5018181;28;20395;-72
2023/12/15 06:33:41;;;;;;;70.85;20.23;;;;;;;;;;5001407;28;20045;-71
2023/12/15 06:36:08;;;;;;;64.80;19.08;;;;;;;;;;5018803;28;20477;-71
2023/12/15 06:38:35;;;;;;;60.38;18.75;;;;;;;;;;5017769;28;20068;-73
2023/12/15 06:41:02;;;;;;;55.22;18.73;;;;;;;;;;5035387;28;20049;-72
2023/12/15 06:43:28;;;;;;;66.20;18.15;;;;;;;;;;5001241;28;20045;-71
2023/12/15 06:45:54;;;;;;;61.17;19.05;;;;;;;;;;5035315;28;20053;-72
2023/12/15 06:48:20;;;;;;;63.92;19.38;;;;;;;;;;5035787;28;20042;-71
2023/12/15 06:50:46;;;;;;;57.95;18.25;;;;;;;;;;5035108;28;20045;-71
2023/12/15 06:53:12;;;;;;;56.80;16.73;;;;;;;;;;5035215;28;20041;-72
2023/12/15 06:55:38;;;;;;;68.63;18.40;;;;;;;;;;5034739;28;20053;-72
2023/12/15 06:58:05;;;;;;;63.70;17.90;;;;;;;;;;5035577;28;20041;-72
2023/12/15 07:00:32;;;;;;;57.25;17.05;;;;;;;;;;5016964;28;20529;-73
2023/12/15 07:02:58;;;;;;;68.03;20.15;;;;;;;;;;5034765;28;20107;-72
2023/12/15 07:05:24;;;;;;;68.50;19.50;;;;;;;;;;5017499;28;20115;-73
2023/12/15 07:07:50;;;;;;;64.50;18.08;;;;;;;;;;5049712;28;20056;-72
2023/12/15 07:10:16;;;;;;;63.03;19.27;;;;;;;;;;5034773;28;20541;-73
2023/12/15 07:12:43;;;;;;;61.45;16.85;;;;;;;;;;5034648;28;20088;-72
2023/12/15 07:15:09;;;;;;;58.22;17.88;;;;;;;;;;5001686;28;20399;-70
2023/12/15 07:17:35;;;;;;;55.33;17.48;;;;;;;;;;5017072;28;20046;-72
2023/12/15 07:20:01;;;;;;;63.50;18.00;;;;;;;;;;5017106;28;20058;-71
2023/12/15 07:22:27;;;;;;;55.83;17.73;;;;;;;;;;5001003;28;20053;-71
2023/12/15 07:24:53;;;;;;;58.90;18.48;;;;;;;;;;5017160;28;20049;-70
2023/12/15 07:27:19;;;;;;;61.13;18.38;;;;;;;;;;5035146;28;20045;-71
2023/12/15 07:29:45;;;;;;;74.28;19.23;;;;;;;;;;5017507;28;20041;-70
2023/12/15 07:32:11;;;;;;;67.47;18.20;;;;;;;;;;5017038;28;20042;-71
2023/12/15 07:34:37;;;;;;;59.55;17.33;;;;;;;;;;5016972;28;20379;-72
2023/12/15 07:37:04;;;;;;;55.65;18.45;;;;;;;;;;5017330;28;20053;-72
2023/12/15 07:39:30;;;;;;;53.90;16.67;;;;;;;;;;5034318;28;20045;-72
2023/12/15 07:41:56;;;;;;;55.85;17.70;;;;;;;;;;5034148;28;20084;-73
2023/12/15 07:44:22;;;;;;;64.50;19.17;;;;;;;;;;5016468;28;20479;-72
2023/12/15 07:46:48;;;;;;;61.25;17.10;;;;;;;;;;5034899;28;20041;-73
2023/12/15 07:49:14;;;;;;;53.88;17.35;;;;;;;;;;5050189;28;20128;-72
2023/12/15 07:51:40;;;;;;;54.38;18.38;;;;;;;;;;5049249;28;20042;-72
2023/12/15 07:54:07;;;;;;;55.17;16.65;;;;;;;;;;5016518;28;20081;-72
2023/12/15 07:56:33;;;;;;;52.33;17.73;;;;;;;;;;5016452;28;20046;-72
2023/12/15 07:58:59;;;;;;;54.72;15.93;;;;;;;;;;5016171;28;20487;-72
2023/12/15 08:01:25;;;;;;;53.70;16.08;;;;;;;;;;5033722;28;20398;-71
2023/12/15 08:03:51;;;;;;;53.55;16.95;;;;;;;;;;5033082;28;20516;-72
2023/12/15 08:06:18;;;;;;;43.47;15.90;;;;;;;;;;5016365;28;20057;-72
2023/12/15 08:08:44;;;;;;;48.33;15.47;;;;;;;;;;5048950;28;20092;-72
2023/12/15 08:11:11;;;;;;;51.08;17.25;;;;;;;;;;4999817;28;20458;-72
2023/12/15 08:13:37;;;;;;;46.72;15.50;;;;;;;;;;5034150;28;20387;-73
2023/12/15 08:16:04;;;;;;;41.67;14.88;;;;;;;;;;5016845;28;20557;-72
2023/12/15 08:18:30;;;;;;;50.40;15.60;;;;;;;;;;5033136;28;20052;-73
2023/12/15 08:20:57;;;;;;;52.70;15.98;;;;;;;;;;5033656;28;20629;-72
2023/12/15 08:23:23;;;;;;;44.22;15.65;;;;;;;;;;5016099;28;20128;-74
2023/12/15 08:25:49;;;;;;;48.67;15.27;;;;;;;;;;5033358;28;20093;-72
2023/12/15 08:28:15;;;;;;;45.80;16.35;;;;;;;;;;5016053;28;20080;-72
2023/12/15 08:30:41;;;;;;;46.45;15.05;;;;;;;;;;5016200;28;20057;-73
2023/12/15 08:33:08;;;;;;;52.80;15.48;;;;;;;;;;5049150;28;20132;-73
2023/12/15 08:35:34;;;;;;;42.15;15.07;;;;;;;;;;5033016;28;20569;-72
2023/12/15 08:38:00;;;;;;;37.33;14.18;;;;;;;;;;5034056;28;20045;-72
2023/12/15 08:40:26;;;;;;;43.25;14.23;;;;;;;;;;5015489;28;20037;-71
2023/12/15 08:42:52;;;;;;;38.83;13.90;;;;;;;;;;5032872;28;20505;-71
2023/12/15 08:45:18;;;;;;;39.45;13.88;;;;;;;;;;5016223;28;20053;-72
2023/12/15 08:47:44;;;;;;;40.17;13.60;;;;;;;;;;5015870;28;20061;-71
2023/12/15 08:50:10;;;;;;;39.25;13.32;;;;;;;;;;5033234;28;20395;-73
2023/12/15 08:52:36;;;;;;;40.97;13.52;;;;;;;;;;5033224;28;20046;-73
2023/12/15 08:55:02;;;;;;;39.90;13.07;;;;;;;;;;5015746;28;20051;-72
2023/12/15 08:57:28;;;;;;;40.13;13.95;;;;;;;;;;5016080;28;20055;-73
2023/12/15 08:59:54;;;;;;;38.95;12.55;;;;;;;;;;5048439;28;20397;-73
2023/12/15 09:02:20;;;;;;;39.03;12.80;;;;;;;;;;5033139;28;20045;-73
2023/12/15 09:04:47;;;;;;;42.33;12.65;;;;;;;;;;5031726;28;20084;-73
2023/12/15 09:07:14;;;;;;;37.58;12.30;;;;;;;;;;5033049;28;20061;-72
2023/12/15 09:09:40;;;;;;;;;;;;;;;;;;5000595;28;20076;-72
2023/12/15 09:12:07;;;;;;;37.30;11.63;;;;;;;;;;5015627;28;19947;-72
2023/12/15 09:14:33;;;;;;;28.73;11.03;;;;;;;;;;5015396;28;20478;-72
2023/12/15 09:17:00;;;;;;;39.03;13.37;;;;;;;;;;5032956;28;20287;-73
2023/12/15 09:19:27;;;;;;;31.17;11.20;;;;;;;;;;5032964;28;20779;-72
2023/12/15 09:21:53;;;;;;;42.35;11.63;;;;;;;;;;5016028;28;20037;-72
2023/12/15 09:24:19;;;;;;;32.88;11.70;;;;;;;;;;5033197;28;20045;-72
2023/12/15 09:26:46;;;;;;;39.72;11.38;;;;;;;;;;5015636;28;20417;-72
2023/12/15 09:29:12;;;;;;;28.73;11.65;;;;;;;;;;5015650;28;20550;-73
2023/12/15 09:31:38;;;;;;;31.73;10.68;;;;;;;;;;5036721;28;20060;-74
2023/12/15 09:34:05;;;;;;;28.02;10.30;;;;;;;;;;5018880;28;20060;-72
2023/12/15 09:36:31;;;;;;;38.88;11.13;;;;;;;;;;5019148;28;20128;-72
2023/12/15 09:38:57;;;;;;;39.72;11.13;;;;;;;;;;5019061;28;20389;-72
2023/12/15 09:41:23;;;;;;;31.10;9.88;;;;;;;;;;5036408;28;20050;-72
2023/12/15 09:43:50;;;;;;;36.10;11.32;;;;;;;;;;5036426;28;20045;-72
2023/12/15 09:46:16;;;;;;;32.13;10.13;;;;;;;;;;5036038;28;20538;-72
2023/12/15 09:48:44;;;;;;;30.17;10.50;;;;;;;;;;5051627;28;20486;-74
2023/12/15 09:51:16;;;;;;;31.05;9.32;;;;;;;;;;5036274;28;20085;-72
2023/12/15 09:53:45;;;;;;;30.10;9.68;;;;;;;;;;5018932;28;20045;-73
2023/12/15 09:56:11;;;;;;;26.88;9.18;;;;;;;;;;5036109;28;20042;-72
2023/12/15 09:58:38;;;;;;;28.80;8.60;;;;;;;;;;5051507;28;20137;-73
2023/12/15 10:01:04;;;;;;;29.80;8.93;;;;;;;;;;5036022;28;20084;-72
2023/12/15 10:03:31;;;;;;;28.08;8.05;;;;;;;;;;5035905;28;20049;-71
2023/12/15 10:05:57;;;;;;;28.30;7.77;;;;;;;;;;5036040;28;20053;-72
2023/12/15 10:08:24;;;;;;;35.87;8.07;;;;;;;;;;5036014;28;20203;-71
2023/12/15 10:10:52;;;;;;;34.67;8.52;;;;;;;;;;5036312;28;20422;-72
2023/12/15 10:13:18;;;;;;;31.05;8.55;;;;;;;;;;5018335;28;20399;-71
2023/12/15 10:15:50;;;;;;;30.45;8.43;;;;;;;;;;5002354;28;20136;-72
2023/12/15 10:18:17;;;;;;;28.35;7.78;;;;;;;;;;5035739;28;20046;-72
2023/12/15 10:20:43;;;;;;;29.08;8.50;;;;;;;;;;5035676;28;20044;-72
2023/12/15 10:23:09;;;;;;;38.72;9.18;;;;;;;;;;5035645;28;20124;-72
2023/12/15 10:25:35;;;;;;;29.10;7.38;;;;;;;;;;5035658;28;20049;-70
2023/12/15 10:28:05;;;;;;;32.95;7.50;;;;;;;;;;5017889;28;20045;-73
2023/12/15 10:30:31;;;;;;;27.73;7.57;;;;;;;;;;5035538;28;20431;-71
2023/12/15 10:32:58;;;;;;;26.60;7.28;;;;;;;;;;5018892;28;20049;-72
2023/12/15 10:35:24;;;;;;;23.95;7.10;;;;;;;;;;5035427;28;20155;-72
2023/12/15 10:37:50;;;;;;;27.23;7.03;;;;;;;;;;5035593;28;20064;-73
2023/12/15 10:40:17;;;;;;;24.73;7.07;;;;;;;;;;5035904;28;20042;-72
2023/12/15 10:42:44;;;;;;;23.98;6.95;;;;;;;;;;5033498;28;20107;-73
2023/12/15 10:45:10;;;;;;;24.75;5.80;;;;;;;;;;5018341;28;20091;-73
2023/12/15 10:47:36;;;;;;;28.13;7.03;;;;;;;;;;5035295;28;20060;-72
2023/12/15 10:50:03;;;;;;;25.85;6.47;;;;;;;;;;5035183;28;20136;-71
2023/12/15 10:52:32;;;;;;;28.80;7.10;;;;;;;;;;5035138;28;20049;-72
2023/12/15 10:54:58;;;;;;;31.63;6.63;;;;;;;;;;5017586;28;20096;-72
2023/12/15 10:57:24;;;;;;;28.33;6.38;;;;;;;;;;5035016;28;20049;-71
2023/12/15 10:59:50;;;;;;;23.25;6.63;;;;;;;;;;5034947;28;20049;-73
2023/12/15 11:02:20;;;;;;;29.52;6.15;;;;;;;;;;5034783;28;20503;-72
2023/12/15 11:04:49;;;;;;;23.25;5.68;;;;;;;;;;5034743;28;20057;-71
2023/12/15 11:07:25;;;;;;;22.33;5.60;;;;;;;;;;5034872;28;20064;-72
2023/12/15 11:09:51;;;;;;;25.25;5.57;;;;;;;;;;5017661;28;20057;-72
2023/12/15 11:12:23;;;;;;;25.67;5.38;;;;;;;;;;5017270;28;20046;-71
2023/12/15 11:14:53;;;;;;;27.17;4.88;;;;;;;;;;5035329;28;20053;-73
2023/12/15 11:17:20;;;;;;;24.75;5.10;;;;;;;;;;5000744;28;20050;-73
2023/12/15 11:19:48;;;;;;;28.70;4.85;;;;;;;;;;5035376;28;20045;-72
2023/12/15 11:22:16;;;;;;;28.80;5.00;;;;;;;;;;5034440;28;20056;-71
2023/12/15 11:24:42;;;;;;;26.27;5.30;;;;;;;;;;5034809;28;20115;-73
2023/12/15 11:27:08;;;;;;;25.65;4.55;;;;;;;;;;5034596;28;20049;-71
2023/12/15 11:29:35;;;;;;;29.38;4.97;;;;;;;;;;5034344;28;20056;-72
2023/12/15 11:32:20;;;;;;;19.98;4.65;;;;;;;;;;5034487;28;20049;-72
2023/12/15 11:34:47;;;;;;;24.70;4.18;;;;;;;;;;5034456;28;20053;-72
2023/12/15 11:37:14;;;;;;;22.83;4.45;;;;;;;;;;5034274;28;20041;-72
2023/12/15 11:39:40;;;;;;;29.90;3.97;;;;;;;;;;5035051;28;20360;-72
2023/12/15 11:42:06;;;;;;;26.08;4.68;;;;;;;;;;5017300;28;20099;-72
2023/12/15 11:44:32;;;;;;;23.20;4.07;;;;;;;;;;5034097;28;20041;-73
2023/12/15 11:46:59;;;;;;;24.00;3.90;;;;;;;;;;5034169;28;20049;-73
2023/12/15 11:49:25;;;;;;;23.38;3.70;;;;;;;;;;5034031;28;20483;-72
2023/12/15 11:51:52;;;;;;;24.90;3.92;;;;;;;;;;5001116;28;20068;-71
2023/12/15 11:54:18;;;;;;;23.60;3.78;;;;;;;;;;5033987;28;20045;-71
2023/12/15 11:56:45;;;;;;;19.30;3.47;;;;;;;;;;5034016;28;20049;-72
2023/12/15 11:59:11;;;;;;;24.67;4.53;;;;;;;;;;5016551;28;20486;-71
2023/12/15 12:01:39;;;;;;;29.85;5.28;;;;;;;;;;5034326;28;20053;-72
2023/12/15 12:04:06;;;;;;;30.23;3.75;;;;;;;;;;5016661;28;20045;-73
2023/12/15 12:06:32;;;;;;;20.65;3.00;;;;;;;;;;5033462;28;20080;-69
2023/12/15 12:08:59;;;;;;;19.25;2.92;;;;;;;;;;5016619;28;20102;-73
2023/12/15 12:11:25;;;;;;;25.50;3.92;;;;;;;;;;5033714;28;20137;-71
2023/12/15 12:14:00;;;;;;;21.90;3.30;;;;;;;;;;5016049;28;20045;-71
2023/12/15 12:16:27;;;;;;;32.80;3.50;;;;;;;;;;5016500;28;20462;-72
2023/12/15 12:18:53;;;;;;;24.73;3.55;;;;;;;;;;5015977;28;20421;-70
2023/12/15 12:21:19;;;;;;;21.10;3.85;;;;;;;;;;5015860;28;20041;-71
2023/12/15 12:23:45;;;;;;;25.23;4.20;;;;;;;;;;5015908;28;20386;-71
2023/12/15 12:26:13;;;;;;;22.23;3.40;;;;;;;;;;5033526;28;20140;-71
2023/12/15 12:28:40;;;;;;;22.73;3.47;;;;;;;;;;5033386;28;20053;-70
2023/12/15 12:31:06;;;;;;;23.00;3.78;;;;;;;;;;5034080;28;20045;-71
2023/12/15 12:33:33;;;;;;;;;;;;;;;;;;5033475;28;20060;-70
2023/12/15 12:36:00;;;;;;;26.10;3.10;;;;;;;;;;4999642;28;19921;-71
2023/12/15 12:38:26;;;;;;;22.35;3.30;;;;;;;;;;5033282;28;20413;-71
2023/12/15 12:40:52;;;;;;;28.80;3.47;;;;;;;;;;5015716;28;20099;-71
2023/12/15 12:43:18;;;;;;;24.30;3.33;;;;;;;;;;5015936;28;20056;-72
2023/12/15 12:45:44;;;;;;;23.13;3.10;;;;;;;;;;5048605;28;20041;-70
2023/12/15 12:48:10;;;;;;;23.67;3.28;;;;;;;;;;5048731;28;20049;-71
2023/12/15 12:50:36;;;;;;;22.27;3.30;;;;;;;;;;5015645;28;20061;-71
2023/12/15 12:53:03;;;;;;;22.92;3.72;;;;;;;;;;5033298;28;20052;-71
2023/12/15 12:55:29;;;;;;;23.98;3.35;;;;;;;;;;5016034;28;20107;-73
2023/12/15 12:57:56;;;;;;;27.02;4.13;;;;;;;;;;5032917;28;20490;-71
2023/12/15 13:00:22;;;;;;;30.20;4.05;;;;;;;;;;5048507;28;20049;-71
2023/12/15 13:02:48;;;;;;;20.67;3.55;;;;;;;;;;5033336;28;20053;-71
2023/12/15 13:05:14;;;;;;;23.47;3.53;;;;;;;;;;5017726;28;20542;-71
2023/12/15 13:07:40;;;;;;;23.98;3.45;;;;;;;;;;5037537;28;20057;-71
2023/12/15 13:10:14;;;;;;;21.30;3.22;;;;;;;;;;5019822;28;20528;-70
2023/12/15 13:12:42;;;;;;;23.48;4.25;;;;;;;;;;5020440;28;20367;-70
2023/12/15 13:15:09;;;;;;;22.40;3.28;;;;;;;;;;5019463;28;20052;-71
2023/12/15 13:17:35;;;;;;;25.48;3.55;;;;;;;;;;5003938;28;20056;-71
2023/12/15 13:20:01;;;;;;;18.13;2.85;;;;;;;;;;5037194;28;20433;-72
2023/12/15 13:22:28;;;;;;;22.40;3.05;;;;;;;;;;5037733;28;20414;-70
2023/12/15 13:24:54;;;;;;;20.60;3.22;;;;;;;;;;5019461;28;20061;-72
2023/12/15 13:27:23;;;;;;;25.02;3.28;;;;;;;;;;5019394;28;20041;-71
2023/12/15 13:29:50;;;;;;;21.63;3.22;;;;;;;;;;5036616;28;20053;-70
2023/12/15 13:32:17;;;;;;;25.13;2.97;;;;;;;;;;5019549;28;20145;-71
2023/12/15 13:34:45;;;;;;;16.77;2.70;;;;;;;;;;5019146;28;20295;-70
2023/12/15 13:37:11;;;;;;;21.17;2.92;;;;;;;;;;5019217;28;20050;-72
2023/12/15 13:39:38;;;;;;;22.45;2.80;;;;;;;;;;5036527;28;20041;-71
2023/12/15 13:42:04;;;;;;;21.38;3.40;;;;;;;;;;5018823;28;20513;-71
2023/12/15 13:44:30;;;;;;;19.40;2.92;;;;;;;;;;5036511;28;20050;-71
2023/12/15 13:46:56;;;;;;;26.55;2.55;;;;;;;;;;5036577;28;20041;-71
2023/12/15 13:49:22;;;;;;;15.00;2.53;;;;;;;;;;5018949;28;20049;-71
2023/12/15 13:51:48;;;;;;;27.58;2.95;;;;;;;;;;5035988;28;20413;-71
2023/12/15 13:54:14;;;;;;;17.45;3.03;;;;;;;;;;5019595;28;20053;-71
2023/12/15 13:56:40;;;;;;;25.17;3.47;;;;;;;;;;5035946;28;20048;-71
2023/12/15 13:59:07;;;;;;;17.90;3.53;;;;;;;;;;5034811;28;20052;-71
2023/12/15 14:01:33;;;;;;;19.05;2.55;;;;;;;;;;5036074;28;20041;-71
2023/12/15 14:03:59;;;;;;;19.40;3.13;;;;;;;;;;5036320;28;20053;-71
2023/12/15 14:06:25;;;;;;;18.75;2.50;;;;;;;;;;5035763;28;20501;-71
2023/12/15 14:08:51;;;;;;;19.10;2.45;;;;;;;;;;5036428;28;20092;-71
2023/12/15 14:11:18;;;;;;;21.02;2.70;;;;;;;;;;5002870;28;20045;-73
2023/12/15 14:13:44;;;;;;;24.67;3.10;;;;;;;;;;5035869;28;20485;-72
2023/12/15 14:16:10;;;;;;;17.75;3.08;;;;;;;;;;5018017;28;20091;-71